createdAt,value
2023-04-15T00:00:28.050Z,945.0824
2023-04-15T00:01:28.607Z,945.0742
2023-04-15T00:02:29.258Z,945.0671
2023-04-15T00:03:30.087Z,945.0641
2023-04-15T00:04:30.983Z,945.0594
2023-04-15T00:05:31.538Z,945.0535
2023-04-15T00:06:32.100Z,945.0529
2023-04-15T00:07:32.637Z,945.0671
2023-04-15T00:08:33.198Z,945.0735
2023-04-15T00:09:34.308Z,945.0747
2023-04-15T00:10:34.833Z,945.0759
2023-04-15T00:11:35.366Z,945.0765
2023-04-15T00:12:36.064Z,945.0618
2023-04-15T00:13:36.569Z,945.0458
2023-04-15T00:14:37.147Z,945.0312
2023-04-15T00:15:37.714Z,945.0212
2023-04-15T00:16:38.318Z,945.0176
2023-04-15T00:17:38.905Z,945.0029
2023-04-15T00:18:39.466Z,944.9835
2023-04-15T00:19:40.294Z,944.9811
2023-04-15T00:20:40.814Z,944.9841
2023-04-15T00:21:41.333Z,944.9841
2023-04-15T00:22:41.891Z,944.9806
2023-04-15T00:23:42.446Z,944.9858
2023-04-15T00:24:43.256Z,944.9888
2023-04-15T00:25:43.851Z,944.9918
2023-04-15T00:26:44.375Z,944.9847
2023-04-15T00:27:44.945Z,944.9776
2023-04-15T00:28:45.514Z,944.9665
2023-04-15T00:29:46.311Z,944.9529
2023-04-15T00:30:46.944Z,944.9406
2023-04-15T00:31:47.471Z,944.9276
2023-04-15T00:32:48.086Z,944.9171
2023-04-15T00:33:48.624Z,944.9135
2023-04-15T00:34:49.156Z,944.9064
2023-04-15T00:35:49.681Z,944.9012
2023-04-15T00:36:50.248Z,944.8947
2023-04-15T00:37:50.806Z,944.8853
2023-04-15T00:38:51.388Z,944.8735
2023-04-15T00:39:52.012Z,944.8776
2023-04-15T00:40:52.558Z,944.8753
2023-04-15T00:41:53.129Z,944.8735
2023-04-15T00:42:53.666Z,944.8706
2023-04-15T00:43:54.212Z,944.8606
2023-04-15T00:44:54.781Z,944.8564
2023-04-15T00:45:55.440Z,944.8447
2023-04-15T00:46:56.315Z,944.8312
2023-04-15T00:47:56.934Z,944.8153
2023-04-15T00:48:57.836Z,944.8112
2023-04-15T00:49:58.406Z,944.8171
2023-04-15T00:50:58.973Z,944.8312
2023-04-15T00:51:59.728Z,944.8389
2023-04-15T00:53:00.313Z,944.8576
2023-04-15T00:54:00.850Z,944.8706
2023-04-15T00:55:01.445Z,944.8800
2023-04-15T00:56:02.011Z,944.8983
2023-04-15T00:57:02.667Z,944.9018
2023-04-15T00:59:06.310Z,944.9065
2023-04-15T00:59:06.310Z,944.9100
2023-04-15T01:00:06.921Z,944.9117
2023-04-15T01:01:09.115Z,944.9086
2023-04-15T01:02:09.749Z,944.9023
2023-04-15T01:07:13.785Z,944.8900
2023-04-15T01:07:13.785Z,944.9000
2023-04-15T01:10:53.283Z,944.8900
2023-04-15T01:10:53.283Z,944.8977
2023-04-15T01:11:47.022Z,944.8780
2023-04-15T01:12:47.577Z,944.8800
2023-04-15T01:13:48.294Z,944.8918
2023-04-15T01:14:48.382Z,944.9037
2023-04-15T01:15:49.021Z,944.9247
2023-04-15T01:16:49.829Z,944.9523
2023-04-15T01:17:50.414Z,944.9806
2023-04-15T01:18:50.947Z,944.9911
2023-04-15T01:19:51.501Z,945.0094
2023-04-15T01:20:52.034Z,945.0165
2023-04-15T01:21:52.697Z,945.0159
2023-04-15T01:22:53.180Z,945.0141
2023-04-15T01:23:53.734Z,945.0189
2023-04-15T01:24:54.473Z,945.0194
2023-04-15T01:25:55.019Z,945.0265
2023-04-15T01:26:55.604Z,945.0171
2023-04-15T01:28:10.865Z,945.0124
2023-04-15T01:28:57.291Z,945.0123
2023-04-15T01:29:57.891Z,945.0065
2023-04-15T01:30:58.391Z,945.0059
2023-04-15T01:31:59.052Z,945.0094
2023-04-15T01:32:59.640Z,945.0112
2023-04-15T01:34:00.207Z,945.0176
2023-04-15T01:35:00.717Z,945.0288
2023-04-15T01:36:01.249Z,945.0394
2023-04-15T01:37:01.881Z,945.0453
2023-04-15T01:38:02.461Z,945.0635
2023-04-15T01:39:03.099Z,945.0729
2023-04-15T01:40:03.727Z,945.0747
2023-04-15T01:41:04.301Z,945.0776
2023-04-15T01:42:04.827Z,945.0965
2023-04-15T01:43:05.398Z,945.1024
2023-04-15T01:44:05.929Z,945.1059
2023-04-15T01:45:06.468Z,945.1082
2023-04-15T01:46:06.998Z,945.1029
2023-04-15T01:47:07.546Z,945.0923
2023-04-15T01:48:08.138Z,945.0712
2023-04-15T01:49:08.937Z,945.0647
2023-04-15T01:50:09.462Z,945.0541
2023-04-15T01:51:10.043Z,945.0453
2023-04-15T01:52:10.583Z,945.0494
2023-04-15T01:53:11.154Z,945.0518
2023-04-15T01:54:12.300Z,945.0576
2023-04-15T01:55:12.858Z,945.0635
2023-04-15T01:56:15.283Z,945.0682
2023-04-15T01:57:15.104Z,945.0806
2023-04-15T01:58:15.592Z,945.0794
2023-04-15T01:59:16.326Z,945.0836
2023-04-15T02:00:16.844Z,945.0894
2023-04-15T02:01:17.431Z,945.0823
2023-04-15T02:02:17.987Z,945.0824
2023-04-15T02:03:18.640Z,945.0735
2023-04-15T02:04:20.768Z,945.0676
2023-04-15T02:05:24.807Z,945.0631
2023-04-15T02:06:25.359Z,945.0524
2023-04-15T02:07:25.884Z,945.0482
2023-04-15T02:08:26.420Z,945.0476
2023-04-15T02:09:26.965Z,945.0494
2023-04-15T02:10:27.539Z,945.0541
2023-04-15T02:11:28.301Z,945.0547
2023-04-15T02:12:28.809Z,945.0594
2023-04-15T02:13:29.356Z,945.0588
2023-04-15T02:14:29.858Z,945.0653
2023-04-15T02:15:30.381Z,945.0606
2023-04-15T02:16:30.983Z,945.0688
2023-04-15T02:17:31.526Z,945.0829
2023-04-15T02:18:32.032Z,945.0876
2023-04-15T02:19:32.556Z,945.0930
2023-04-15T02:20:33.089Z,945.1017
2023-04-15T02:21:34.258Z,945.0970
2023-04-15T02:22:34.877Z,945.0982
2023-04-15T02:23:35.438Z,945.1017
2023-04-15T02:24:35.931Z,945.1111
2023-04-15T02:25:36.453Z,945.1141
2023-04-15T02:26:37.013Z,945.1029
2023-04-15T02:27:37.546Z,945.0970
2023-04-15T02:28:38.077Z,945.0953
2023-04-15T02:29:38.665Z,945.1047
2023-04-15T02:30:39.195Z,945.1118
2023-04-15T02:31:40.015Z,945.1141
2023-04-15T02:32:40.594Z,945.1158
2023-04-15T02:33:41.105Z,945.1194
2023-04-15T02:34:41.660Z,945.1076
2023-04-15T02:35:42.233Z,945.1011
2023-04-15T02:36:42.807Z,945.1064
2023-04-15T02:37:43.434Z,945.1006
2023-04-15T02:38:44.055Z,945.1082
2023-04-15T02:39:44.582Z,945.1064
2023-04-15T02:40:45.142Z,945.1158
2023-04-15T02:41:45.977Z,945.1064
2023-04-15T02:42:46.581Z,945.1135
2023-04-15T02:43:47.112Z,945.1282
2023-04-15T02:44:47.680Z,945.1441
2023-04-15T02:45:48.398Z,945.1429
2023-04-15T02:46:49.094Z,945.1418
2023-04-15T02:47:49.707Z,945.1412
2023-04-15T02:48:50.485Z,945.1294
2023-04-15T02:49:51.002Z,945.1111
2023-04-15T02:50:52.048Z,945.1088
2023-04-15T02:51:52.857Z,945.1047
2023-04-15T02:52:53.385Z,945.0876
2023-04-15T02:53:53.973Z,945.0959
2023-04-15T02:54:54.530Z,945.0859
2023-04-15T02:55:55.065Z,945.0876
2023-04-15T02:56:55.814Z,945.0900
2023-04-15T02:57:56.365Z,945.0994
2023-04-15T02:58:56.960Z,945.0970
2023-04-15T02:59:57.454Z,945.1088
2023-04-15T03:00:57.998Z,945.1212
2023-04-15T03:01:58.549Z,945.1342
2023-04-15T03:02:59.215Z,945.1489
2023-04-15T03:03:59.904Z,945.1588
2023-04-15T03:05:00.425Z,945.1611
2023-04-15T03:06:00.943Z,945.1641
2023-04-15T03:07:01.487Z,945.1647
2023-04-15T03:08:02.032Z,945.1541
2023-04-15T03:09:02.731Z,945.1429
2023-04-15T03:10:03.324Z,945.1294
2023-04-15T03:11:03.895Z,945.1182
2023-04-15T03:12:04.421Z,945.0982
2023-04-15T03:13:04.986Z,945.0923
2023-04-15T03:14:05.547Z,945.0883
2023-04-15T03:15:06.083Z,945.0853
2023-04-15T03:16:06.718Z,945.0900
2023-04-15T03:17:07.275Z,945.0842
2023-04-15T03:18:07.928Z,945.0782
2023-04-15T03:19:08.484Z,945.0771
2023-04-15T03:20:09.061Z,945.0706
2023-04-15T03:21:09.563Z,945.0653
2023-04-15T03:22:10.122Z,945.0742
2023-04-15T03:23:10.650Z,945.0853
2023-04-15T03:24:11.219Z,945.1006
2023-04-15T03:25:11.748Z,945.1106
2023-04-15T03:26:12.300Z,945.1118
2023-04-15T03:27:12.804Z,945.1182
2023-04-15T03:28:13.345Z,945.1135
2023-04-15T03:29:15.424Z,945.1147
2023-04-15T03:30:15.935Z,945.0935
2023-04-15T03:31:16.828Z,945.0789
2023-04-15T03:32:17.339Z,945.0700
2023-04-15T03:33:17.890Z,945.0671
2023-04-15T03:34:18.442Z,945.0629
2023-04-15T03:35:19.012Z,945.0565
2023-04-15T03:36:19.541Z,945.0535
2023-04-15T03:37:20.054Z,945.0429
2023-04-15T03:38:20.621Z,945.0394
2023-04-15T03:39:21.174Z,945.0341
2023-04-15T03:40:21.706Z,945.0359
2023-04-15T03:41:22.500Z,945.0236
2023-04-15T03:42:23.003Z,945.0129
2023-04-15T03:43:23.574Z,945.0006
2023-04-15T03:44:24.129Z,944.9764
2023-04-15T03:45:24.690Z,944.9536
2023-04-15T03:46:25.487Z,944.9288
2023-04-15T03:47:25.991Z,944.9247
2023-04-15T03:48:26.516Z,944.9218
2023-04-15T03:49:27.076Z,944.9353
2023-04-15T03:50:27.593Z,944.9329
2023-04-15T03:51:28.135Z,944.9247
2023-04-15T03:52:28.697Z,944.9206
2023-04-15T03:53:29.288Z,944.9200
2023-04-15T03:54:29.833Z,944.9365
2023-04-15T03:55:30.361Z,944.9447
2023-04-15T03:56:31.126Z,944.9529
2023-04-15T03:57:31.692Z,944.9571
2023-04-15T03:58:32.282Z,944.9547
2023-04-15T03:59:32.850Z,944.9694
2023-04-15T04:00:33.401Z,944.9853
2023-04-15T04:01:34.021Z,944.9911
2023-04-15T04:02:34.612Z,944.9971
2023-04-15T04:03:35.357Z,945.0024
2023-04-15T04:04:36.056Z,945.0129
2023-04-15T04:05:36.572Z,945.0212
2023-04-15T04:06:37.109Z,945.0289
2023-04-15T04:07:37.652Z,945.0335
2023-04-15T04:08:38.283Z,945.0341
2023-04-15T04:09:38.809Z,945.0429
2023-04-15T04:10:39.402Z,945.0424
2023-04-15T04:11:40.262Z,945.0453
2023-04-15T04:12:40.769Z,945.0582
2023-04-15T04:13:41.394Z,945.0518
2023-04-15T04:14:41.934Z,945.0488
2023-04-15T04:15:42.480Z,945.0471
2023-04-15T04:16:44.886Z,945.0412
2023-04-15T04:17:45.406Z,945.0429
2023-04-15T04:18:45.984Z,945.0429
2023-04-15T04:19:46.554Z,945.0464
2023-04-15T04:20:47.102Z,945.0482
2023-04-15T04:21:47.872Z,945.0600
2023-04-15T04:22:48.427Z,945.0665
2023-04-15T04:23:49.017Z,945.0641
2023-04-15T04:24:49.538Z,945.0647
2023-04-15T04:25:50.076Z,945.0635
2023-04-15T04:26:50.609Z,945.0806
2023-04-15T04:27:51.172Z,945.0847
2023-04-15T04:28:51.918Z,945.0871
2023-04-15T04:29:52.478Z,945.0889
2023-04-15T04:30:52.997Z,945.0941
2023-04-15T04:31:53.630Z,945.0965
2023-04-15T04:32:54.191Z,945.1047
2023-04-15T04:33:54.718Z,945.1088
2023-04-15T04:34:55.246Z,945.1176
2023-04-15T04:35:55.778Z,945.1200
2023-04-15T04:36:56.353Z,945.1158
2023-04-15T04:37:56.907Z,945.1229
2023-04-15T04:38:57.441Z,945.1206
2023-04-15T04:39:57.957Z,945.1265
2023-04-15T04:40:58.463Z,945.1265
2023-04-15T04:41:59.244Z,945.1294
2023-04-15T04:42:59.807Z,945.1324
2023-04-15T04:44:00.353Z,945.1224
2023-04-15T04:45:00.892Z,945.1158
2023-04-15T04:46:01.481Z,945.1200
2023-04-15T04:47:02.072Z,945.1206
2023-04-15T04:48:02.759Z,945.1129
2023-04-15T04:49:03.770Z,945.1141
2023-04-15T04:50:04.359Z,945.1118
2023-04-15T04:51:04.910Z,945.1129
2023-04-15T04:52:05.444Z,945.1106
2023-04-15T04:53:05.974Z,945.1147
2023-04-15T04:54:06.787Z,945.1276
2023-04-15T04:55:07.337Z,945.1229
2023-04-15T04:56:07.872Z,945.1194
2023-04-15T04:57:08.423Z,945.1235
2023-04-15T04:58:09.008Z,945.1265
2023-04-15T04:59:09.557Z,945.1335
2023-04-15T05:00:10.142Z,945.1318
2023-04-15T05:01:10.781Z,945.1365
2023-04-15T05:02:11.341Z,945.1465
2023-04-15T05:03:12.148Z,945.1594
2023-04-15T05:04:13.182Z,945.1629
2023-04-15T05:05:13.768Z,945.1647
2023-04-15T05:06:14.320Z,945.1741
2023-04-15T05:07:14.898Z,945.1794
2023-04-15T05:08:15.507Z,945.1794
2023-04-15T05:09:16.378Z,945.1912
2023-04-15T05:10:16.957Z,945.1947
2023-04-15T05:11:17.467Z,945.2036
2023-04-15T05:12:17.988Z,945.2130
2023-04-15T05:13:18.545Z,945.2329
2023-04-15T05:14:19.138Z,945.2435
2023-04-15T05:15:19.679Z,945.2565
2023-04-15T05:16:20.295Z,945.2712
2023-04-15T05:17:20.903Z,945.2818
2023-04-15T05:18:21.447Z,945.2883
2023-04-15T05:19:22.012Z,945.2906
2023-04-15T05:20:22.547Z,945.2894
2023-04-15T05:21:23.079Z,945.2964
2023-04-15T05:22:23.634Z,945.3018
2023-04-15T05:23:24.517Z,945.3106
2023-04-15T05:24:25.066Z,945.3247
2023-04-15T05:25:25.584Z,945.3271
2023-04-15T05:26:26.143Z,945.3318
2023-04-15T05:27:26.725Z,945.3394
2023-04-15T05:28:27.271Z,945.3423
2023-04-15T05:29:27.817Z,945.3547
2023-04-15T05:30:28.348Z,945.3588
2023-04-15T05:31:29.209Z,945.3618
2023-04-15T05:32:29.840Z,945.3641
2023-04-15T05:33:30.416Z,945.3635
2023-04-15T05:34:31.035Z,945.3700
2023-04-15T05:35:31.603Z,945.3676
2023-04-15T05:36:32.189Z,945.3694
2023-04-15T05:37:32.764Z,945.3665
2023-04-15T05:38:33.556Z,945.3635
2023-04-15T05:39:34.163Z,945.3553
2023-04-15T05:40:34.755Z,945.3482
2023-04-15T05:41:35.336Z,945.3588
2023-04-15T05:42:35.899Z,945.3606
2023-04-15T05:43:36.521Z,945.3529
2023-04-15T05:44:37.153Z,945.3494
2023-04-15T05:45:37.729Z,945.3453
2023-04-15T05:46:38.583Z,945.3383
2023-04-15T05:47:39.259Z,945.3470
2023-04-15T05:48:39.895Z,945.3559
2023-04-15T05:49:40.492Z,945.3647
2023-04-15T05:50:41.071Z,945.3676
2023-04-15T05:51:41.733Z,945.3718
2023-04-15T05:52:42.277Z,945.3782
2023-04-15T05:53:42.851Z,945.4012
2023-04-15T05:54:43.438Z,945.3959
2023-04-15T05:55:44.040Z,945.3900
2023-04-15T05:56:44.617Z,945.3936
2023-04-15T05:57:45.227Z,945.3976
2023-04-15T05:58:46.017Z,945.4006
2023-04-15T05:59:46.562Z,945.4117
2023-04-15T06:00:47.149Z,945.4247
2023-04-15T06:01:47.981Z,945.4394
2023-04-15T06:02:48.661Z,945.4371
2023-04-15T06:03:49.445Z,945.4353
2023-04-15T06:04:50.186Z,945.4500
2023-04-15T06:05:50.688Z,945.4541
2023-04-15T06:06:51.256Z,945.4571
2023-04-15T06:07:51.823Z,945.4647
2023-04-15T06:08:52.458Z,945.4635
2023-04-15T06:09:53.040Z,945.4494
2023-04-15T06:10:53.622Z,945.4494
2023-04-15T06:11:54.310Z,945.4670
2023-04-15T06:12:54.838Z,945.4741
2023-04-15T06:13:55.414Z,945.4764
2023-04-15T06:14:56.022Z,945.4788
2023-04-15T06:15:56.605Z,945.4694
2023-04-15T06:16:57.247Z,945.4600
2023-04-15T06:17:57.830Z,945.4518
2023-04-15T06:18:58.436Z,945.4282
2023-04-15T06:19:59.016Z,945.4294
2023-04-15T06:20:59.622Z,945.4376
2023-04-15T06:22:00.228Z,945.4442
2023-04-15T06:23:00.823Z,945.4442
2023-04-15T06:24:01.473Z,945.4353
2023-04-15T06:25:02.116Z,945.4300
2023-04-15T06:26:02.712Z,945.4229
2023-04-15T06:27:03.312Z,945.4088
2023-04-15T06:28:03.898Z,945.4094
2023-04-15T06:29:04.483Z,945.3947
2023-04-15T06:30:05.088Z,945.4070
2023-04-15T06:31:07.269Z,945.4070
2023-04-15T06:32:07.827Z,945.4088
2023-04-15T06:33:08.467Z,945.4035
2023-04-15T06:34:09.105Z,945.3947
2023-04-15T06:35:09.698Z,945.3947
2023-04-15T06:36:10.355Z,945.4000
2023-04-15T06:37:10.904Z,945.4070
2023-04-15T06:38:11.503Z,945.3941
2023-04-15T06:39:12.079Z,945.3941
2023-04-15T06:40:12.675Z,945.4053
2023-04-15T06:41:13.256Z,945.4088
2023-04-15T06:42:13.848Z,945.4200
2023-04-15T06:43:14.477Z,945.4306
2023-04-15T06:44:15.080Z,945.4271
2023-04-15T06:45:15.701Z,945.4282
2023-04-15T06:46:16.368Z,945.4388
2023-04-15T06:47:17.017Z,945.4459
2023-04-15T06:48:17.629Z,945.4571
2023-04-15T06:49:18.237Z,945.4630
2023-04-15T06:50:18.866Z,945.4758
2023-04-15T06:51:19.457Z,945.4900
2023-04-15T06:52:20.074Z,945.5024
2023-04-15T06:53:20.624Z,945.5124
2023-04-15T06:54:21.234Z,945.5129
2023-04-15T06:55:21.828Z,945.5082
2023-04-15T06:56:22.408Z,945.5212
2023-04-15T06:57:23.017Z,945.5189
2023-04-15T06:58:23.571Z,945.5236
2023-04-15T06:59:24.145Z,945.5312
2023-04-15T07:00:24.779Z,945.5370
2023-04-15T07:01:25.390Z,945.5283
2023-04-15T07:02:26.127Z,945.5182
2023-04-15T07:03:26.731Z,945.5194
2023-04-15T07:04:27.335Z,945.5229
2023-04-15T07:05:27.985Z,945.5271
2023-04-15T07:06:28.625Z,945.5218
2023-04-15T07:07:29.191Z,945.5236
2023-04-15T07:08:30.025Z,945.5112
2023-04-15T07:09:30.595Z,945.5206
2023-04-15T07:10:31.190Z,945.5212
2023-04-15T07:11:31.789Z,945.5106
2023-04-15T07:12:32.365Z,945.5029
2023-04-15T07:13:32.936Z,945.4965
2023-04-15T07:14:33.520Z,945.4871
2023-04-15T07:15:34.123Z,945.4788
2023-04-15T07:16:34.770Z,945.4682
2023-04-15T07:17:35.411Z,945.4588
2023-04-15T07:18:35.993Z,945.4618
2023-04-15T07:19:36.590Z,945.4500
2023-04-15T07:20:37.232Z,945.4476
2023-04-15T07:21:38.928Z,945.4471
2023-04-15T07:22:40.522Z,945.4435
2023-04-15T07:23:41.347Z,945.4524
2023-04-15T07:24:41.922Z,945.4612
2023-04-15T07:25:42.541Z,945.4606
2023-04-15T07:26:43.105Z,945.4476
2023-04-15T07:27:43.691Z,945.4276
2023-04-15T07:28:44.307Z,945.4194
2023-04-15T07:29:44.902Z,945.4171
2023-04-15T07:30:45.499Z,945.4012
2023-04-15T07:31:46.119Z,945.3882
2023-04-15T07:32:46.758Z,945.3535
2023-04-15T07:33:47.303Z,945.3470
2023-04-15T07:34:47.908Z,945.3629
2023-04-15T07:35:48.530Z,945.3706
2023-04-15T07:36:49.116Z,945.3582
2023-04-15T07:37:49.912Z,945.3294
2023-04-15T07:38:50.495Z,945.3253
2023-04-15T07:39:51.124Z,945.3464
2023-04-15T07:40:51.865Z,945.3524
2023-04-15T07:41:52.438Z,945.3641
2023-04-15T07:42:53.009Z,945.3659
2023-04-15T07:43:53.685Z,945.3747
2023-04-15T07:44:54.259Z,945.3347
2023-04-15T07:45:55.114Z,945.3370
2023-04-15T07:46:55.659Z,945.2882
2023-04-15T07:47:56.381Z,945.3077
2023-04-15T07:48:56.986Z,945.3112
2023-04-15T07:49:57.616Z,945.3006
2023-04-15T07:50:58.226Z,945.3229
2023-04-15T07:51:58.826Z,945.3223
2023-04-15T07:52:59.665Z,945.3165
2023-04-15T07:54:00.241Z,945.2835
2023-04-15T07:55:00.874Z,945.2988
2023-04-15T07:56:01.733Z,945.3053
2023-04-15T07:57:02.330Z,945.3000
2023-04-15T07:58:03.041Z,945.2964
2023-04-15T07:59:03.805Z,945.3118
2023-04-15T08:00:04.566Z,945.3276
2023-04-15T08:01:05.171Z,945.3094
2023-04-15T08:02:05.932Z,945.3176
2023-04-15T08:03:06.573Z,945.3271
2023-04-15T08:04:07.377Z,945.3259
2023-04-15T08:05:07.982Z,945.3082
2023-04-15T08:06:08.577Z,945.3171
2023-04-15T08:07:09.157Z,945.3206
2023-04-15T08:08:09.751Z,945.3000
2023-04-15T08:09:10.357Z,945.3053
2023-04-15T08:10:11.112Z,945.3147
2023-04-15T08:11:11.921Z,945.3106
2023-04-15T08:12:12.505Z,945.3465
2023-04-15T08:13:13.106Z,945.3624
2023-04-15T08:14:13.689Z,945.3553
2023-04-15T08:15:14.296Z,945.3676
2023-04-15T08:16:14.866Z,945.3829
2023-04-15T08:17:15.627Z,945.3829
2023-04-15T08:18:16.277Z,945.3853
2023-04-15T08:19:16.872Z,945.3906
2023-04-15T08:20:17.503Z,945.4006
2023-04-15T08:21:18.165Z,945.3564
2023-04-15T08:22:20.105Z,945.3641
2023-04-15T08:23:22.175Z,945.3906
2023-04-15T08:24:22.818Z,945.4135
2023-04-15T08:25:23.430Z,945.4200
2023-04-15T08:26:24.022Z,945.4365
2023-04-15T08:27:24.608Z,945.4312
2023-04-15T08:28:25.199Z,945.4282
2023-04-15T08:29:25.838Z,945.4312
2023-04-15T08:30:26.666Z,945.4400
2023-04-15T08:31:27.403Z,945.4359
2023-04-15T08:32:27.985Z,945.4053
2023-04-15T08:33:28.904Z,945.4012
2023-04-15T08:34:29.484Z,945.4147
2023-04-15T08:35:30.158Z,945.4341
2023-04-15T08:36:30.759Z,945.4335
2023-04-15T08:37:31.551Z,945.4424
2023-04-15T08:38:32.167Z,945.4442
2023-04-15T08:39:32.835Z,945.4524
2023-04-15T08:40:33.689Z,945.4636
2023-04-15T08:41:34.275Z,945.4553
2023-04-15T08:42:34.901Z,945.4618
2023-04-15T08:43:35.526Z,945.4618
2023-04-15T08:44:36.102Z,945.4706
2023-04-15T08:45:36.692Z,945.4659
2023-04-15T08:46:37.371Z,945.4618
2023-04-15T08:47:38.204Z,945.4600
2023-04-15T08:48:38.817Z,945.4636
2023-04-15T08:49:39.481Z,945.4711
2023-04-15T08:50:40.124Z,945.4724
2023-04-15T08:51:40.731Z,945.4688
2023-04-15T08:52:41.555Z,945.4694
2023-04-15T08:53:42.179Z,945.4747
2023-04-15T08:54:42.779Z,945.4800
2023-04-15T08:55:43.567Z,945.4782
2023-04-15T08:56:44.379Z,945.4947
2023-04-15T08:57:44.953Z,945.4994
2023-04-15T08:58:45.508Z,945.4918
2023-04-15T08:59:46.086Z,945.4906
2023-04-15T09:00:46.760Z,945.4865
2023-04-15T09:01:47.445Z,945.5042
2023-04-15T09:02:48.152Z,945.5189
2023-04-15T09:03:48.852Z,945.5265
2023-04-15T09:04:49.537Z,945.5435
2023-04-15T09:05:51.461Z,945.5600
2023-04-15T09:06:50.227Z,945.5644
2023-04-15T09:07:50.858Z,945.5800
2023-04-15T09:08:51.385Z,945.5842
2023-04-15T09:09:51.949Z,945.6047
2023-04-15T09:10:52.559Z,945.6135
2023-04-15T09:11:53.158Z,945.6135
2023-04-15T09:12:53.769Z,945.6188
2023-04-15T09:13:54.357Z,945.6182
2023-04-15T09:14:54.932Z,945.6129
2023-04-15T09:15:55.497Z,945.6135
2023-04-15T09:16:56.106Z,945.6206
2023-04-15T09:17:56.715Z,945.6329
2023-04-15T09:18:57.326Z,945.6318
2023-04-15T09:19:57.908Z,945.6570
2023-04-15T09:20:58.490Z,945.6706
2023-04-15T09:21:59.414Z,945.6871
2023-04-15T09:23:00.440Z,945.6959
2023-04-15T09:24:01.403Z,945.7047
2023-04-15T09:25:02.437Z,945.7194
2023-04-15T09:26:03.052Z,945.7335
2023-04-15T09:27:03.680Z,945.7429
2023-04-15T09:28:04.494Z,945.7676
2023-04-15T09:29:05.101Z,945.7759
2023-04-15T09:30:05.668Z,945.7947
2023-04-15T09:31:06.283Z,945.8118
2023-04-15T09:32:06.869Z,945.8029
2023-04-15T09:33:07.511Z,945.8147
2023-04-15T09:34:08.056Z,945.8065
2023-04-15T09:35:08.893Z,945.8265
2023-04-15T09:36:09.587Z,945.8265
2023-04-15T09:37:10.543Z,945.8165
2023-04-15T09:38:11.113Z,945.7807
2023-04-15T09:39:11.680Z,945.7800
2023-04-15T09:40:12.269Z,945.7900
2023-04-15T09:41:12.842Z,945.7982
2023-04-15T09:42:13.427Z,945.7971
2023-04-15T09:43:14.032Z,945.8065
2023-04-15T09:44:14.582Z,945.8112
2023-04-15T09:45:15.200Z,945.8176
2023-04-15T09:46:15.793Z,945.8271
2023-04-15T09:47:16.672Z,945.8312
2023-04-15T09:48:17.299Z,945.8370
2023-04-15T09:49:17.973Z,945.8671
2023-04-15T09:50:18.551Z,945.8900
2023-04-15T09:51:19.213Z,945.8959
2023-04-15T09:52:19.794Z,945.9030
2023-04-15T09:53:20.387Z,945.9276
2023-04-15T09:54:20.974Z,945.9489
2023-04-15T09:55:21.552Z,945.9680
2023-04-15T09:56:22.138Z,945.9847
2023-04-15T09:57:22.693Z,945.9747
2023-04-15T09:58:23.278Z,945.9659
2023-04-15T09:59:23.844Z,945.9682
2023-04-15T10:00:24.985Z,945.9536
2023-04-15T10:01:25.565Z,945.9471
2023-04-15T10:02:26.287Z,945.9447
2023-04-15T10:03:27.000Z,945.9494
2023-04-15T10:04:27.958Z,945.9670
2023-04-15T10:05:29.775Z,945.9811
2023-04-15T10:06:30.777Z,945.9953
2023-04-15T10:07:31.349Z,945.9988
2023-04-15T10:08:31.958Z,946.0059
2023-04-15T10:09:32.553Z,946.0100
2023-04-15T10:10:33.133Z,946.0182
2023-04-15T10:11:33.692Z,946.0265
2023-04-15T10:12:34.315Z,946.0377
2023-04-15T10:13:34.877Z,946.0323
2023-04-15T10:14:35.506Z,946.0259
2023-04-15T10:15:36.090Z,946.0042
2023-04-15T10:16:36.634Z,945.9971
2023-04-15T10:17:37.461Z,945.9811
2023-04-15T10:18:38.150Z,945.9900
2023-04-15T10:19:38.771Z,945.9953
2023-04-15T10:20:39.365Z,946.0082
2023-04-15T10:21:39.949Z,946.0129
2023-04-15T10:22:40.757Z,946.0100
2023-04-15T10:23:41.280Z,946.0135
2023-04-15T10:25:44.935Z,946.0241
2023-04-15T10:25:44.935Z,946.0437
2023-04-15T10:26:45.556Z,946.0553
2023-04-15T10:27:46.122Z,946.0571
2023-04-15T10:28:46.710Z,946.0700
2023-04-15T10:29:47.299Z,946.0782
2023-04-15T10:30:47.880Z,946.0894
2023-04-15T10:31:48.576Z,946.0906
2023-04-15T10:32:49.169Z,946.0988
2023-04-15T10:33:49.733Z,946.1017
2023-04-15T10:34:51.071Z,946.1059
2023-04-15T10:35:52.414Z,946.0888
2023-04-15T10:36:52.978Z,946.1000
2023-04-15T10:37:53.552Z,946.1153
2023-04-15T10:38:54.132Z,946.1053
2023-04-15T10:39:54.910Z,946.1024
2023-04-15T10:40:55.514Z,946.1012
2023-04-15T10:41:56.167Z,946.1176
2023-04-15T10:42:56.725Z,946.1282
2023-04-15T10:43:57.295Z,946.1371
2023-04-15T10:44:57.868Z,946.1165
2023-04-15T10:45:58.445Z,946.1182
2023-04-15T10:46:59.277Z,946.0912
2023-04-15T10:48:01.596Z,946.1318
2023-04-15T10:49:00.359Z,946.1438
2023-04-15T10:50:00.985Z,946.1259
2023-04-15T10:51:01.591Z,946.1259
2023-04-15T10:52:02.167Z,946.1418
2023-04-15T10:53:02.726Z,946.1617
2023-04-15T10:54:03.536Z,946.1788
2023-04-15T10:55:04.114Z,946.1806
2023-04-15T10:56:04.682Z,946.2024
2023-04-15T10:57:05.250Z,946.1741
2023-04-15T10:58:05.866Z,946.1882
2023-04-15T10:59:06.431Z,946.1129
2023-04-15T11:00:07.001Z,946.1441
2023-04-15T11:01:07.616Z,946.2047
2023-04-15T11:02:08.479Z,946.1947
2023-04-15T11:03:09.518Z,946.2047
2023-04-15T11:04:10.543Z,946.2547
2023-04-15T11:05:11.097Z,946.3124
2023-04-15T11:06:11.669Z,946.2882
2023-04-15T11:07:12.257Z,946.2589
2023-04-15T11:08:12.868Z,946.3118
2023-04-15T11:09:13.690Z,946.2947
2023-04-15T11:10:14.279Z,946.2759
2023-04-15T11:11:14.831Z,946.3059
2023-04-15T11:12:15.445Z,946.3477
2023-04-15T11:13:16.062Z,946.3829
2023-04-15T11:14:16.632Z,946.4247
2023-04-15T11:15:17.199Z,946.4424
2023-04-15T11:16:17.820Z,946.4442
2023-04-15T11:17:18.698Z,946.4659
2023-04-15T11:18:19.297Z,946.4376
2023-04-15T11:19:19.908Z,946.4641
2023-04-15T11:20:20.499Z,946.4188
2023-04-15T11:21:21.088Z,946.4441
2023-04-15T11:22:21.666Z,946.4653
2023-04-15T11:23:22.534Z,946.4877
2023-04-15T11:24:23.318Z,946.4759
2023-04-15T11:25:24.043Z,946.5000
2023-04-15T11:26:24.697Z,946.5723
2023-04-15T11:27:25.293Z,946.5853
2023-04-15T11:28:25.856Z,946.6024
2023-04-15T11:29:26.465Z,946.6200
2023-04-15T11:30:27.080Z,946.5541
2023-04-15T11:31:27.701Z,946.5836
2023-04-15T11:32:28.282Z,946.6276
2023-04-15T11:33:28.911Z,946.7212
2023-04-15T11:34:29.493Z,946.5665
2023-04-15T11:35:30.084Z,946.6188
2023-04-15T11:36:30.645Z,946.7230
2023-04-15T11:37:31.252Z,946.7606
2023-04-15T11:38:31.834Z,946.7682
2023-04-15T11:39:32.429Z,946.7676
2023-04-15T11:40:32.980Z,946.7447
2023-04-15T11:41:33.579Z,946.6912
2023-04-15T11:42:48.741Z,946.7783
2023-04-15T11:43:37.148Z,946.7981
2023-04-15T11:44:37.735Z,946.8176
2023-04-15T11:45:38.340Z,946.8006
2023-04-15T11:46:38.912Z,946.8447
2023-04-15T11:47:39.509Z,946.8035
2023-04-15T11:48:40.113Z,946.7924
2023-04-15T11:49:40.953Z,946.7994
2023-04-15T11:50:41.559Z,946.8370
2023-04-15T11:51:42.099Z,946.8741
2023-04-15T11:52:42.656Z,946.8900
2023-04-15T11:53:43.281Z,946.8723
2023-04-15T11:54:43.873Z,946.8800
2023-04-15T11:55:44.683Z,946.8906
2023-04-15T11:56:45.244Z,946.9271